Aeroporto :
LOGIN :

Iscrizione | Disclaimer

   EN    FR    IT 

 










Sommario :    VFR   VFR Marginale   IFR   IFR Intensivo   IFR Molto Intensivo
Visibilità : 
Base nubi : 
>= 8 km
>= 3000ft
5 / 8 km
1000 / 3000 ft
1500m / 5 km
500 / 1000 ft
800 / 1500m
200 / 500 ft
< 800m
< 200 ft
Simboli :   Temporali  Nebbia  Neve Forte  Precipitazioni Forti  Vento > 20 kt
SIGMETs :   Varie  Temporali  Ghiacco  Turbolenza  Onda orograficha  Ceneri Vulcaniche







- Altitudine del aeroporto : 42 ft
- Codice IATA : CAL
- Carte del aeroporto


EGEC - Campbeltown

ULTIMO METAR :
  • 210720Z 17014KT 9999 FEW013 14/12 Q1018

METARs OBSOLETI :
  • 210650Z 15010KT 9999 SCT013 13/12 Q1019

TAF TAF EGEC
Valido dal 21 a 06 ore il 21 a 15 ore UTC


210656Z 2106/2115 16010KT 9999 SCT020
TEMPO 2111/2115 16020G30KT 5000 RA BKN014
PROB30
TEMPO 2112/2115 3500 +RA
Nessun NOTAM noto per questo aeroporto.



MetMap, La meteo Aeronautica in un colpo d'occhio ! - Copyright ORBIFLY Dicembre 2007 - Disclaimer

ORBIFLY MET'MAP TEAM :

Programmazione e sviluppo : Alexandra Zaïnal
Concezione e sviluppo : Baudouin d'Aumeries
Co-Programmazione e sviluppo : Marc-Olivier Méhu
Supporto tecnico e logistico : Manuel Goepfert
Aiuto per la traduzione : Arnaldo La Scala

Contatto : metmap@orbifly.com




FONTI E CREDITI :

   NOAA